createdAt,value
2016-11-21T00:01:16.560Z,281.6
2016-11-21T00:12:16.667Z,281.7
2016-11-21T00:23:17.048Z,280.3
2016-11-21T00:34:16.992Z,280.8
2016-11-21T00:45:16.620Z,276.6
2016-11-21T00:56:16.984Z,280.4
2016-11-21T01:07:17.153Z,277.4
2016-11-21T01:18:17.579Z,276.8
2016-11-21T01:29:17.333Z,276.5
2016-11-21T01:40:17.270Z,276.9
2016-11-21T01:51:16.988Z,279.9
2016-11-21T02:02:17.175Z,279.5
2016-11-21T02:13:17.140Z,279.6
2016-11-21T02:24:17.928Z,280.4
2016-11-21T02:35:17.521Z,279.9
2016-11-21T02:46:16.465Z,281.9
2016-11-21T02:57:17.344Z,281.3
2016-11-21T03:08:16.564Z,281.3
2016-11-21T03:19:16.873Z,281
2016-11-21T03:30:17.064Z,276.5
2016-11-21T03:41:17.262Z,281
2016-11-21T03:52:17.105Z,282
2016-11-21T04:03:17.473Z,280.2
2016-11-21T04:14:17.373Z,279.4
2016-11-21T04:25:17.680Z,279.2
2016-11-21T04:36:17.071Z,280.5
2016-11-21T04:47:17.427Z,280.2
2016-11-21T04:58:17.199Z,282.6
2016-11-21T05:09:17.253Z,281.3
2016-11-21T05:20:17.564Z,282.1
2016-11-21T05:31:16.652Z,283
2016-11-21T05:42:16.711Z,282.2
2016-11-21T05:53:16.950Z,279.2
2016-11-21T06:04:16.894Z,280.6
2016-11-21T06:15:16.854Z,280.1
2016-11-21T06:25:27.515Z,285.8
2016-11-21T06:36:17.947Z,280.6
2016-11-21T06:47:17.302Z,281.8
2016-11-21T06:58:16.561Z,280
2016-11-21T07:09:17.263Z,279
2016-11-21T07:20:17.460Z,281.2
2016-11-21T07:31:17.329Z,281.2
2016-11-21T07:42:16.830Z,279.1
2016-11-21T07:53:17.886Z,282.2
2016-11-21T08:04:16.756Z,281.6
2016-11-21T08:15:17.291Z,281.8
2016-11-21T08:26:17.043Z,281.6
2016-11-21T08:37:17.539Z,281.5
2016-11-21T08:48:16.808Z,281.6
2016-11-21T08:59:16.892Z,282.4
2016-11-21T09:10:17.096Z,280.7
2016-11-21T09:21:17.023Z,281.1
2016-11-21T09:32:16.689Z,280.3
2016-11-21T09:43:17.354Z,280.2
2016-11-21T09:54:17.573Z,282.3
2016-11-21T10:05:18.134Z,281.9
2016-11-21T10:16:16.587Z,282.3
2016-11-21T10:27:17.316Z,282.4
2016-11-21T10:38:17.128Z,282.6
2016-11-21T10:49:16.845Z,282.3
2016-11-21T11:00:17.207Z,282.4
2016-11-21T11:11:16.856Z,282
2016-11-21T11:22:17.305Z,282.2
2016-11-21T11:33:16.585Z,283
2016-11-21T11:44:17.353Z,283
2016-11-21T11:55:17.861Z,283.1
2016-11-21T12:06:16.692Z,282.9
2016-11-21T12:17:17.466Z,282.7
2016-11-21T12:28:16.478Z,282.8
2016-11-21T12:39:16.721Z,282.8
2016-11-21T12:50:16.908Z,283
2016-11-21T13:01:16.910Z,283
2016-11-21T13:12:16.895Z,283.5
2016-11-21T13:23:16.852Z,283.1
2016-11-21T13:34:17.117Z,283.4
2016-11-21T13:45:17.042Z,282.8
2016-11-21T13:56:16.893Z,282.8
2016-11-21T14:07:17.804Z,283.3
2016-11-21T14:18:17.007Z,283
2016-11-21T14:29:17.265Z,282.9
2016-11-21T14:40:17.570Z,283.2
2016-11-21T14:51:16.975Z,283.5
2016-11-21T15:02:17.335Z,283.3
2016-11-21T15:13:16.752Z,287.9
2016-11-21T15:24:16.585Z,283.1
2016-11-21T15:35:17.151Z,283.2
2016-11-21T15:46:16.698Z,283.3
2016-11-21T15:57:17.054Z,283.2
2016-11-21T16:08:16.901Z,282.7
2016-11-21T16:19:17.412Z,283.5
2016-11-21T16:30:17.302Z,284
2016-11-21T16:41:17.343Z,284
2016-11-21T16:52:17.527Z,283.9
2016-11-21T17:03:17.097Z,283.8
2016-11-21T17:14:18.376Z,283
2016-11-21T17:25:17.399Z,282.9
2016-11-21T17:36:17.176Z,282
2016-11-21T17:47:17.339Z,282.7
2016-11-21T17:58:16.988Z,283.6
2016-11-21T18:09:16.917Z,283.7
2016-11-21T18:20:17.615Z,283.8
2016-11-21T18:31:17.110Z,283.9
2016-11-21T18:42:17.418Z,283.6
2016-11-21T18:53:17.447Z,282.8
2016-11-21T19:04:17.258Z,282.7
2016-11-21T19:15:17.262Z,283.2
2016-11-21T19:26:17.344Z,283.8
2016-11-21T19:37:17.606Z,282.8
2016-11-21T19:48:16.640Z,283.2
2016-11-21T19:59:16.805Z,283.4
2016-11-21T20:10:17.591Z,283.4
2016-11-21T20:21:17.475Z,283.3
2016-11-21T20:32:17.208Z,283.2
2016-11-21T20:43:17.638Z,282.9
2016-11-21T20:54:17.288Z,283
2016-11-21T21:05:16.679Z,283.8
2016-11-21T21:16:16.612Z,283.9
2016-11-21T21:27:17.416Z,284
2016-11-21T21:38:17.485Z,283.8
2016-11-21T21:49:16.743Z,283.4
2016-11-21T22:00:17.045Z,283.8
2016-11-21T22:11:16.447Z,283.8
2016-11-21T22:22:17.482Z,284.2
2016-11-21T22:33:17.413Z,284
2016-11-21T22:44:17.423Z,283.8
2016-11-21T22:55:17.625Z,283.3
2016-11-21T23:06:16.580Z,283.6
2016-11-21T23:17:17.261Z,283.9
2016-11-21T23:28:16.541Z,284
2016-11-21T23:39:16.779Z,284.1
2016-11-21T23:50:17.272Z,283.6
